Carnival Pride — H3VU — position and weather

sailwx.info

Track history (hours):
 
Tides and Currents Weather Stations Pressure Air Temp Water Temp Dewpoint Dewpoint Depression Visibility Wind Speed Wind Dir Waves Ship Positions

Carnival Pride

Operator: Carnival Cruise Lines

Last reported at 2015-Aug-27 05:31 UTC. Time now 2015-Aug-28 02:09 UTC.
Position N 26°52' W 079°15'.

Type: Ship. MMSI: 354215000.

Date/timePositionNaut miles runAvg speedWind from/ knotsBaromVisibWave heightAir tempDewpointWater temp
2015-Aug-27 05:31N 26°52' W 079°15'118 6.2
2015-Aug-26 10:33N 28°25' W 080°37'  
2015-Aug-24 03:30N 37°34' W 076°03'2317.5
2015-Aug-24 02:11N 37°57' W 076°10'1218.6
2015-Aug-24 01:32N 38°08' W 076°14'3718.5
2015-Aug-23 23:33N 38°44' W 076°26'1818.0
2015-Aug-23 22:34N 39°02' W 076°23'1312.8
2015-Aug-23 21:33N 39°13' W 076°31'5 4.8
2015-Aug-23 20:33N 39°16' W 076°36'0 0.0
2015-Aug-23 19:33N 39°16' W 076°36'0 0.0
2015-Aug-23 18:33N 39°16' W 076°36'0 0.0
2015-Aug-23 17:33N 39°16' W 076°36'0 0.0
2015-Aug-23 16:30N 39°16' W 076°36'0 0.0
2015-Aug-23 15:33N 39°16' W 076°36'0 0.0
2015-Aug-23 14:30N 39°16' W 076°36'0 0.0
2015-Aug-23 13:33N 39°16' W 076°36'0 0.1
2015-Aug-23 12:33N 39°16' W 076°36'9 8.9
2015-Aug-23 11:33N 39°11' W 076°26'1414.5
2015-Aug-23 10:34N 38°56' W 076°23'1918.6
2015-Aug-23 09:33N 38°38' W 076°25'4219.0
2015-Aug-23 07:22N 37°58' W 076°11'42217.7
2015-Aug-22 07:34N 31°23' W 079°09'23623.6
2015-Aug-21 21:31N 27°27' W 079°28'4723.0
2015-Aug-21 19:30N 26°44' W 079°09'24 2.7
2015-Aug-21 10:31N 26°30' W 078°47'10 9.0
2015-Aug-21 09:28N 26°22' W 078°41'1617.6
2015-Aug-21 08:33N 26°14' W 078°26'2017.8
2015-Aug-21 07:25N 26°08' W 078°04'  
2015-Aug-18 10:00N 28°36' W 073°06'36818.9 270 1020.010.8 28.024.0
2015-Aug-17 14:28N 34°34' W 074°49'1717.8
2015-Aug-17 13:30N 34°51' W 074°54'1718.1
2015-Aug-17 12:33N 35°07' W 074°59'3819.4
2015-Aug-17 10:34N 35°45' W 075°11'2019.9
2015-Aug-17 09:33N 36°04' W 075°16'2219.7
2015-Aug-17 08:28N 36°23' W 075°29'1719.2
2015-Aug-17 07:33N 36°39' W 075°39'1918.4
2015-Aug-17 06:31N 36°53' W 075°54'1414.6
2015-Aug-17 05:34N 37°04' W 076°06'  
Track history (hours):
 
Tides and Currents Weather Stations Pressure Air Temp Water Temp Dewpoint Dewpoint Depression Visibility Wind Speed Wind Dir Waves Ship Positions

Carnival Pride

Operator: Carnival Cruise Lines

Last reported at 2015-Aug-27 05:31 UTC. Time now 2015-Aug-28 02:09 UTC.
Position N 26°52' W 079°15'.

Type: Ship. MMSI: 354215000.

Date/timePositionNaut miles runAvg speedWind from/ knotsBaromVisibWave heightAir tempDewpointWater temp
2015-Aug-27 05:31N 26°52' W 079°15'118 6.2
2015-Aug-26 10:33N 28°25' W 080°37'  
2015-Aug-24 03:30N 37°34' W 076°03'2317.5
2015-Aug-24 02:11N 37°57' W 076°10'1218.6
2015-Aug-24 01:32N 38°08' W 076°14'3718.5
2015-Aug-23 23:33N 38°44' W 076°26'1818.0
2015-Aug-23 22:34N 39°02' W 076°23'1312.8
2015-Aug-23 21:33N 39°13' W 076°31'5 4.8
2015-Aug-23 20:33N 39°16' W 076°36'0 0.0
2015-Aug-23 19:33N 39°16' W 076°36'0 0.0
2015-Aug-23 18:33N 39°16' W 076°36'0 0.0
2015-Aug-23 17:33N 39°16' W 076°36'0 0.0
2015-Aug-23 16:30N 39°16' W 076°36'0 0.0
2015-Aug-23 15:33N 39°16' W 076°36'0 0.0
2015-Aug-23 14:30N 39°16' W 076°36'0 0.0
2015-Aug-23 13:33N 39°16' W 076°36'0 0.1
2015-Aug-23 12:33N 39°16' W 076°36'9 8.9
2015-Aug-23 11:33N 39°11' W 076°26'1414.5
2015-Aug-23 10:34N 38°56' W 076°23'1918.6
2015-Aug-23 09:33N 38°38' W 076°25'4219.0
2015-Aug-23 07:22N 37°58' W 076°11'42217.7
2015-Aug-22 07:34N 31°23' W 079°09'23623.6
2015-Aug-21 21:31N 27°27' W 079°28'4723.0
2015-Aug-21 19:30N 26°44' W 079°09'24 2.7
2015-Aug-21 10:31N 26°30' W 078°47'10 9.0
2015-Aug-21 09:28N 26°22' W 078°41'1617.6
2015-Aug-21 08:33N 26°14' W 078°26'2017.8
2015-Aug-21 07:25N 26°08' W 078°04'  
2015-Aug-18 10:00N 28°36' W 073°06'36818.9 270 1020.010.8 28.024.0
2015-Aug-17 14:28N 34°34' W 074°49'1717.8
2015-Aug-17 13:30N 34°51' W 074°54'1718.1
2015-Aug-17 12:33N 35°07' W 074°59'3819.4
2015-Aug-17 10:34N 35°45' W 075°11'2019.9
2015-Aug-17 09:33N 36°04' W 075°16'2219.7
2015-Aug-17 08:28N 36°23' W 075°29'1719.2
2015-Aug-17 07:33N 36°39' W 075°39'1918.4
2015-Aug-17 06:31N 36°53' W 075°54'1414.6
2015-Aug-17 05:34N 37°04' W 076°06'  

Dump ship's entire track history